sensor_id;sensor_type;location;lat;lon;timestamp;pressure;altitude;pressure_sealevel;temperature;humidity
20015;BME280;61787;42.022;23.078;2023-10-08T00:01:03;97249.63;;;15.44;55.23
20015;BME280;61787;42.022;23.078;2023-10-08T00:02:05;97239.66;;;15.48;55.35
20015;BME280;61787;42.022;23.078;2023-10-08T00:03:07;97241.78;;;15.54;54.78
20015;BME280;61787;42.022;23.078;2023-10-08T00:04:10;97241.78;;;15.54;54.97
20015;BME280;61787;42.022;23.078;2023-10-08T00:05:12;97238.16;;;15.50;54.74
20015;BME280;61787;42.022;23.078;2023-10-08T00:06:19;97231.19;;;15.49;55.21
20015;BME280;61787;42.022;23.078;2023-10-08T00:07:23;97239.28;;;15.49;55.21
20015;BME280;61787;42.022;23.078;2023-10-08T00:08:25;97228.34;;;15.42;55.23
20015;BME280;61787;42.022;23.078;2023-10-08T00:09:27;97235.50;;;15.34;54.89
20015;BME280;61787;42.022;23.078;2023-10-08T00:10:37;97230.75;;;15.28;54.95
20015;BME280;61787;42.022;23.078;2023-10-08T00:11:41;97230.53;;;15.02;55.05
20015;BME280;61787;42.022;23.078;2023-10-08T00:12:43;97233.84;;;14.95;56.31
20015;BME280;61787;42.022;23.078;2023-10-08T00:13:49;97230.81;;;14.97;56.47
20015;BME280;61787;42.022;23.078;2023-10-08T00:14:51;97228.25;;;15.04;56.12
20015;BME280;61787;42.022;23.078;2023-10-08T00:15:56;97233.75;;;15.07;55.92
20015;BME280;61787;42.022;23.078;2023-10-08T00:16:58;97226.84;;;15.10;55.84
20015;BME280;61787;42.022;23.078;2023-10-08T00:17:59;97231.97;;;15.15;55.68
20015;BME280;61787;42.022;23.078;2023-10-08T00:19:02;97225.25;;;15.24;55.40
20015;BME280;61787;42.022;23.078;2023-10-08T00:20:10;97223.69;;;15.23;55.63
20015;BME280;61787;42.022;23.078;2023-10-08T00:21:18;97215.50;;;15.20;55.60
20015;BME280;61787;42.022;23.078;2023-10-08T00:22:21;97224.31;;;15.17;55.71
20015;BME280;61787;42.022;23.078;2023-10-08T00:23:24;97221.19;;;15.15;56.19
20015;BME280;61787;42.022;23.078;2023-10-08T00:24:27;97223.88;;;15.15;55.73
20015;BME280;61787;42.022;23.078;2023-10-08T00:25:31;97221.19;;;15.15;55.89
20015;BME280;61787;42.022;23.078;2023-10-08T00:26:35;97222.75;;;15.16;56.09
20015;BME280;61787;42.022;23.078;2023-10-08T00:27:41;97222.75;;;15.16;56.44
20015;BME280;61787;42.022;23.078;2023-10-08T00:28:43;97229.63;;;15.13;56.21
20015;BME280;61787;42.022;23.078;2023-10-08T00:29:44;97219.88;;;15.09;55.94
20015;BME280;61787;42.022;23.078;2023-10-08T00:30:47;97226.00;;;15.06;55.92
20015;BME280;61787;42.022;23.078;2023-10-08T00:31:49;97220.16;;;15.04;56.21
20015;BME280;61787;42.022;23.078;2023-10-08T00:32:51;97224.00;;;15.03;55.79
20015;BME280;61787;42.022;23.078;2023-10-08T00:33:53;97219.28;;;15.00;55.70
20015;BME280;61787;42.022;23.078;2023-10-08T00:34:55;97217.72;;;14.99;55.60
20015;BME280;61787;42.022;23.078;2023-10-08T00:35:57;97224.28;;;14.98;55.88
20015;BME280;61787;42.022;23.078;2023-10-08T00:36:59;97220.53;;;14.86;57.03
20015;BME280;61787;42.022;23.078;2023-10-08T00:38:00;97220.72;;;14.62;57.06
20015;BME280;61787;42.022;23.078;2023-10-08T00:39:06;97221.56;;;14.35;57.72
20015;BME280;61787;42.022;23.078;2023-10-08T00:40:38;97224.31;;;14.23;58.43
20015;BME280;61787;42.022;23.078;2023-10-08T00:41:44;97222.94;;;14.29;58.01
20015;BME280;61787;42.022;23.078;2023-10-08T00:42:47;97223.81;;;14.33;58.31
20015;BME280;61787;42.022;23.078;2023-10-08T00:43:49;97224.69;;;14.37;57.92
20015;BME280;61787;42.022;23.078;2023-10-08T00:44:52;97221.06;;;14.45;57.74
20015;BME280;61787;42.022;23.078;2023-10-08T00:45:55;97228.19;;;14.53;57.57
20015;BME280;61787;42.022;23.078;2023-10-08T00:47:00;97221.41;;;14.59;57.64
20015;BME280;61787;42.022;23.078;2023-10-08T00:48:03;97227.69;;;14.63;57.10
20015;BME280;61787;42.022;23.078;2023-10-08T00:49:08;97227.16;;;14.73;57.44
20015;BME280;61787;42.022;23.078;2023-10-08T00:50:33;97217.22;;;14.77;57.37
20015;BME280;61787;42.022;23.078;2023-10-08T00:51:44;97222.38;;;14.82;56.61
20015;BME280;61787;42.022;23.078;2023-10-08T00:52:50;97218.97;;;14.85;56.69
20015;BME280;61787;42.022;23.078;2023-10-08T00:54:03;97226.28;;;14.85;56.92
20015;BME280;61787;42.022;23.078;2023-10-08T00:55:09;97223.66;;;14.88;56.64
20015;BME280;61787;42.022;23.078;2023-10-08T00:56:21;97220.53;;;14.86;56.86
20015;BME280;61787;42.022;23.078;2023-10-08T00:57:29;97218.25;;;14.88;56.62
20015;BME280;61787;42.022;23.078;2023-10-08T00:58:31;97230.63;;;14.89;56.44
20015;BME280;61787;42.022;23.078;2023-10-08T00:59:35;97228.19;;;14.84;56.68
20015;BME280;61787;42.022;23.078;2023-10-08T01:00:47;97229.59;;;14.78;56.95
20015;BME280;61787;42.022;23.078;2023-10-08T01:01:50;97234.13;;;14.74;57.54
20015;BME280;61787;42.022;23.078;2023-10-08T01:02:53;97234.72;;;14.52;57.33
20015;BME280;61787;42.022;23.078;2023-10-08T01:04:03;97223.34;;;14.15;58.40
20015;BME280;61787;42.022;23.078;2023-10-08T01:05:14;97221.88;;;13.74;60.18
20015;BME280;61787;42.022;23.078;2023-10-08T01:06:19;97219.69;;;13.52;61.09
20015;BME280;61787;42.022;23.078;2023-10-08T01:07:22;97227.34;;;13.38;62.06
20015;BME280;61787;42.022;23.078;2023-10-08T01:08:25;97227.13;;;13.31;62.68
20015;BME280;61787;42.022;23.078;2023-10-08T01:09:46;97228.28;;;13.05;63.35
20015;BME280;61787;42.022;23.078;2023-10-08T01:10:52;97224.34;;;12.91;64.22
20015;BME280;61787;42.022;23.078;2023-10-08T01:12:17;97232.56;;;12.82;65.15
20015;BME280;61787;42.022;23.078;2023-10-08T01:13:30;97227.59;;;13.08;64.37
20015;BME280;61787;42.022;23.078;2023-10-08T01:14:37;97227.59;;;13.20;64.14
20015;BME280;61787;42.022;23.078;2023-10-08T01:15:39;97224.91;;;13.33;64.24
20015;BME280;61787;42.022;23.078;2023-10-08T01:16:42;97224.22;;;13.36;63.36
20015;BME280;61787;42.022;23.078;2023-10-08T01:17:48;97223.53;;;13.39;63.53
20015;BME280;61787;42.022;23.078;2023-10-08T01:18:59;97223.06;;;13.49;63.33
20015;BME280;61787;42.022;23.078;2023-10-08T01:20:01;97224.03;;;13.56;62.82
20015;BME280;61787;42.022;23.078;2023-10-08T01:21:32;97228.47;;;13.37;62.94
20015;BME280;61787;42.022;23.078;2023-10-08T01:22:41;97231.00;;;13.17;64.32
20015;BME280;61787;42.022;23.078;2023-10-08T01:23:44;97225.59;;;13.17;64.27
20015;BME280;61787;42.022;23.078;2023-10-08T01:24:48;97234.91;;;13.08;64.10
20015;BME280;61787;42.022;23.078;2023-10-08T01:25:50;97227.16;;;12.94;64.82
20015;BME280;61787;42.022;23.078;2023-10-08T01:26:53;97227.38;;;12.65;66.02
20015;BME280;61787;42.022;23.078;2023-10-08T01:27:56;97219.50;;;12.35;66.86
20015;BME280;61787;42.022;23.078;2023-10-08T01:29:02;97227.28;;;12.16;67.27
20015;BME280;61787;42.022;23.078;2023-10-08T01:30:08;97226.09;;;12.26;67.67
20015;BME280;61787;42.022;23.078;2023-10-08T01:31:19;97234.44;;;12.45;67.76
20015;BME280;61787;42.022;23.078;2023-10-08T01:32:21;97226.34;;;12.57;67.34
20015;BME280;61787;42.022;23.078;2023-10-08T01:33:27;97224.91;;;12.60;66.79
20015;BME280;61787;42.022;23.078;2023-10-08T01:34:29;97225.69;;;12.60;66.26
20015;BME280;61787;42.022;23.078;2023-10-08T01:35:39;97220.19;;;12.57;66.28
20015;BME280;61787;42.022;23.078;2023-10-08T01:36:40;97213.47;;;12.63;66.55
20015;BME280;61787;42.022;23.078;2023-10-08T01:37:44;97217.59;;;12.48;65.80
20015;BME280;61787;42.022;23.078;2023-10-08T01:38:49;97223.09;;;12.39;66.85
20015;BME280;61787;42.022;23.078;2023-10-08T01:39:51;97214.34;;;12.43;66.49
20015;BME280;61787;42.022;23.078;2023-10-08T01:40:53;97215.47;;;12.54;66.81
20015;BME280;61787;42.022;23.078;2023-10-08T01:41:54;97212.56;;;12.59;66.74
20015;BME280;61787;42.022;23.078;2023-10-08T01:42:56;97213.91;;;12.53;66.22
20015;BME280;61787;42.022;23.078;2023-10-08T01:44:07;97224.22;;;12.63;66.54
20015;BME280;61787;42.022;23.078;2023-10-08T01:45:10;97219.78;;;12.67;65.97
20015;BME280;61787;42.022;23.078;2023-10-08T01:46:19;97229.63;;;12.75;65.73
20015;BME280;61787;42.022;23.078;2023-10-08T01:47:23;97223.22;;;12.79;65.95
20015;BME280;61787;42.022;23.078;2023-10-08T01:48:27;97211.44;;;12.84;65.58
20015;BME280;61787;42.022;23.078;2023-10-08T01:49:38;97211.69;;;12.79;65.29
20015;BME280;61787;42.022;23.078;2023-10-08T01:50:41;97228.50;;;12.76;66.30
20015;BME280;61787;42.022;23.078;2023-10-08T01:51:46;97215.28;;;12.71;65.40
20015;BME280;61787;42.022;23.078;2023-10-08T01:52:48;97219.31;;;12.65;66.44
20015;BME280;61787;42.022;23.078;2023-10-08T01:53:54;97216.16;;;12.51;66.52
20015;BME280;61787;42.022;23.078;2023-10-08T01:55:00;97210.72;;;12.26;67.78
20015;BME280;61787;42.022;23.078;2023-10-08T01:56:02;97211.84;;;12.13;67.75
20015;BME280;61787;42.022;23.078;2023-10-08T01:57:05;97208.50;;;12.28;68.33
20015;BME280;61787;42.022;23.078;2023-10-08T01:58:13;97204.28;;;12.39;67.77
20015;BME280;61787;42.022;23.078;2023-10-08T01:59:15;97211.00;;;12.46;67.70
20015;BME280;61787;42.022;23.078;2023-10-08T02:00:18;97209.31;;;12.53;67.38
20015;BME280;61787;42.022;23.078;2023-10-08T02:01:23;97210.66;;;12.59;67.04
20015;BME280;61787;42.022;23.078;2023-10-08T02:02:24;97202.72;;;12.63;66.75
20015;BME280;61787;42.022;23.078;2023-10-08T02:03:27;97204.25;;;12.52;67.21
20015;BME280;61787;42.022;23.078;2023-10-08T02:04:33;97207.06;;;12.31;67.89
20015;BME280;61787;42.022;23.078;2023-10-08T02:05:36;97213.84;;;12.16;68.66
20015;BME280;61787;42.022;23.078;2023-10-08T02:06:43;97209.28;;;12.29;68.47
20015;BME280;61787;42.022;23.078;2023-10-08T02:07:47;97214.69;;;12.41;68.19
20015;BME280;61787;42.022;23.078;2023-10-08T02:08:49;97209.31;;;12.53;67.98
20015;BME280;61787;42.022;23.078;2023-10-08T02:09:51;97209.75;;;12.67;67.90
20015;BME280;61787;42.022;23.078;2023-10-08T02:10:52;97206.28;;;12.79;67.53
20015;BME280;61787;42.022;23.078;2023-10-08T02:11:54;97201.56;;;12.88;67.00
20015;BME280;61787;42.022;23.078;2023-10-08T02:12:56;97206.50;;;12.98;65.94
20015;BME280;61787;42.022;23.078;2023-10-08T02:13:57;97202.03;;;13.02;65.98
20015;BME280;61787;42.022;23.078;2023-10-08T02:14:59;97205.63;;;13.06;65.95
20015;BME280;61787;42.022;23.078;2023-10-08T02:16:04;97211.09;;;13.10;65.51
20015;BME280;61787;42.022;23.078;2023-10-08T02:17:06;97205.84;;;13.13;65.46
20015;BME280;61787;42.022;23.078;2023-10-08T02:18:08;97203.38;;;13.20;65.51
20015;BME280;61787;42.022;23.078;2023-10-08T02:19:10;97206.94;;;13.24;64.81
20015;BME280;61787;42.022;23.078;2023-10-08T02:20:12;97203.22;;;13.29;64.34
20015;BME280;61787;42.022;23.078;2023-10-08T02:21:16;97204.47;;;13.32;64.44
20015;BME280;61787;42.022;23.078;2023-10-08T02:22:18;97201.09;;;13.35;64.36
20015;BME280;61787;42.022;23.078;2023-10-08T02:23:21;97201.88;;;13.35;64.11
20015;BME280;61787;42.022;23.078;2023-10-08T02:24:23;97207.06;;;13.28;63.95
20015;BME280;61787;42.022;23.078;2023-10-08T02:25:26;97205.59;;;13.31;64.10
20015;BME280;61787;42.022;23.078;2023-10-08T02:26:27;97203.44;;;13.36;64.21
20015;BME280;61787;42.022;23.078;2023-10-08T02:27:29;97201.31;;;13.42;64.07
20015;BME280;61787;42.022;23.078;2023-10-08T02:28:34;97199.94;;;13.48;64.16
20015;BME280;61787;42.022;23.078;2023-10-08T02:29:36;97198.59;;;13.54;63.50
20015;BME280;61787;42.022;23.078;2023-10-08T02:30:38;97195.88;;;13.54;63.21
20015;BME280;61787;42.022;23.078;2023-10-08T02:31:40;97200.13;;;13.55;62.75
20015;BME280;61787;42.022;23.078;2023-10-08T02:32:42;97197.09;;;13.56;63.43
20015;BME280;61787;42.022;23.078;2023-10-08T02:33:44;97202.56;;;13.60;63.43
20015;BME280;61787;42.022;23.078;2023-10-08T02:34:46;97198.75;;;13.61;62.85
20015;BME280;61787;42.022;23.078;2023-10-08T02:35:47;97198.75;;;13.61;63.18
20015;BME280;61787;42.022;23.078;2023-10-08T02:36:51;97202.56;;;13.60;63.36
20015;BME280;61787;42.022;23.078;2023-10-08T02:37:53;97195.66;;;13.59;63.94
20015;BME280;61787;42.022;23.078;2023-10-08T02:38:56;97196.13;;;13.49;63.66
20015;BME280;61787;42.022;23.078;2023-10-08T02:39:58;97200.41;;;13.38;63.78
20015;BME280;61787;42.022;23.078;2023-10-08T02:40:59;97200.66;;;13.33;64.20
20015;BME280;61787;42.022;23.078;2023-10-08T02:42:01;97198.84;;;13.37;63.90
20015;BME280;61787;42.022;23.078;2023-10-08T02:43:03;97202.50;;;13.44;63.77
20015;BME280;61787;42.022;23.078;2023-10-08T02:44:08;97198.38;;;13.47;63.82
20015;BME280;61787;42.022;23.078;2023-10-08T02:45:14;97207.66;;;13.49;63.51
20015;BME280;61787;42.022;23.078;2023-10-08T02:46:17;97198.91;;;13.52;63.68
20015;BME280;61787;42.022;23.078;2023-10-08T02:47:20;97205.50;;;13.55;63.37
20015;BME280;61787;42.022;23.078;2023-10-08T02:48:22;97203.28;;;13.57;63.25
20015;BME280;61787;42.022;23.078;2023-10-08T02:49:24;97202.56;;;13.60;63.00
20015;BME280;61787;42.022;23.078;2023-10-08T02:50:26;97204.16;;;13.61;62.87
20015;BME280;61787;42.022;23.078;2023-10-08T02:51:29;97207.97;;;13.60;63.10
20015;BME280;61787;42.022;23.078;2023-10-08T02:52:30;97203.38;;;13.60;63.21
20015;BME280;61787;42.022;23.078;2023-10-08T02:53:32;97202.56;;;13.60;62.74
20015;BME280;61787;42.022;23.078;2023-10-08T02:54:34;97205.97;;;13.57;62.84
20015;BME280;61787;42.022;23.078;2023-10-08T02:55:38;97205.63;;;13.58;62.56
20015;BME280;61787;42.022;23.078;2023-10-08T02:56:47;97198.75;;;13.61;62.29
20015;BME280;61787;42.022;23.078;2023-10-08T02:57:49;97205.72;;;13.62;62.70
20015;BME280;61787;42.022;23.078;2023-10-08T02:58:52;97199.94;;;13.48;62.14
20015;BME280;61787;42.022;23.078;2023-10-08T02:59:53;97201.38;;;13.17;63.10
20015;BME280;61787;42.022;23.078;2023-10-08T03:00:56;97216.06;;;12.96;63.58
20015;BME280;61787;42.022;23.078;2023-10-08T03:01:58;97219.97;;;12.74;64.73
20015;BME280;61787;42.022;23.078;2023-10-08T03:03:00;97213.13;;;12.64;65.09
20015;BME280;61787;42.022;23.078;2023-10-08T03:04:04;97211.56;;;12.75;64.24
20015;BME280;61787;42.022;23.078;2023-10-08T03:05:16;97211.91;;;12.86;63.50
20015;BME280;61787;42.022;23.078;2023-10-08T03:06:19;97208.22;;;12.91;63.96
20015;BME280;61787;42.022;23.078;2023-10-08T03:07:21;97209.88;;;12.95;63.87
20015;BME280;61787;42.022;23.078;2023-10-08T03:08:23;97210.78;;;12.99;63.92
20015;BME280;61787;42.022;23.078;2023-10-08T03:09:25;97203.16;;;13.01;63.58
20015;BME280;61787;42.022;23.078;2023-10-08T03:10:33;97207.84;;;13.04;63.07
20015;BME280;61787;42.022;23.078;2023-10-08T03:11:35;97208.72;;;13.08;64.13
20015;BME280;61787;42.022;23.078;2023-10-08T03:12:38;97212.78;;;13.14;63.43
20015;BME280;61787;42.022;23.078;2023-10-08T03:13:42;97206.75;;;13.17;63.10
20015;BME280;61787;42.022;23.078;2023-10-08T03:14:44;97209.88;;;13.19;63.14
20015;BME280;61787;42.022;23.078;2023-10-08T03:16:02;97212.13;;;13.17;62.93
20015;BME280;61787;42.022;23.078;2023-10-08T03:17:04;97204.38;;;13.16;63.16
20015;BME280;61787;42.022;23.078;2023-10-08T03:18:09;97202.91;;;13.18;63.51
20015;BME280;61787;42.022;23.078;2023-10-08T03:19:16;97204.50;;;13.19;63.08
20015;BME280;61787;42.022;23.078;2023-10-08T03:20:20;97210.31;;;13.09;63.53
20015;BME280;61787;42.022;23.078;2023-10-08T03:21:41;97207.88;;;12.80;64.13
20015;BME280;61787;42.022;23.078;2023-10-08T03:22:42;97207.97;;;12.59;64.46
20015;BME280;61787;42.022;23.078;2023-10-08T03:23:47;97213.69;;;12.46;65.52
20015;BME280;61787;42.022;23.078;2023-10-08T03:24:49;97212.00;;;12.41;66.03
20015;BME280;61787;42.022;23.078;2023-10-08T03:25:55;97211.44;;;12.48;66.51
20015;BME280;61787;42.022;23.078;2023-10-08T03:27:10;97204.03;;;12.57;65.49
20015;BME280;61787;42.022;23.078;2023-10-08T03:28:21;97215.94;;;12.68;65.19
20015;BME280;61787;42.022;23.078;2023-10-08T03:29:26;97212.03;;;12.65;65.29
20015;BME280;61787;42.022;23.078;2023-10-08T03:30:32;97204.19;;;12.60;64.88
20015;BME280;61787;42.022;23.078;2023-10-08T03:31:38;97210.00;;;12.50;65.48
20015;BME280;61787;42.022;23.078;2023-10-08T03:32:51;97211.88;;;12.37;65.78
20015;BME280;61787;42.022;23.078;2023-10-08T03:33:57;97210.72;;;12.26;66.25
20015;BME280;61787;42.022;23.078;2023-10-08T03:34:59;97212.59;;;12.02;66.49
20015;BME280;61787;42.022;23.078;2023-10-08T03:36:05;97215.09;;;11.74;67.90
20015;BME280;61787;42.022;23.078;2023-10-08T03:37:22;97207.06;;;11.44;68.95
20015;BME280;61787;42.022;23.078;2023-10-08T03:38:42;97207.22;;;11.27;70.66
20015;BME280;61787;42.022;23.078;2023-10-08T03:39:51;97209.31;;;11.22;70.57
20015;BME280;61787;42.022;23.078;2023-10-08T03:40:56;97211.47;;;11.28;70.43
20015;BME280;61787;42.022;23.078;2023-10-08T03:42:03;97207.25;;;11.39;70.48
20015;BME280;61787;42.022;23.078;2023-10-08T03:43:09;97212.44;;;11.44;70.49
20015;BME280;61787;42.022;23.078;2023-10-08T03:44:24;97209.81;;;11.57;69.25
20015;BME280;61787;42.022;23.078;2023-10-08T03:45:26;97211.00;;;11.68;69.31
20015;BME280;61787;42.022;23.078;2023-10-08T03:46:46;97210.19;;;11.67;69.79
20015;BME280;61787;42.022;23.078;2023-10-08T03:47:49;97206.59;;;11.63;69.42
20015;BME280;61787;42.022;23.078;2023-10-08T03:49:10;97208.75;;;11.70;70.03
20015;BME280;61787;42.022;23.078;2023-10-08T03:50:24;97214.66;;;11.84;68.89
20015;BME280;61787;42.022;23.078;2023-10-08T03:51:34;97212.88;;;11.88;68.91
20015;BME280;61787;42.022;23.078;2023-10-08T03:52:41;97207.41;;;11.96;68.93
20015;BME280;61787;42.022;23.078;2023-10-08T03:53:44;97207.66;;;12.04;68.47
20015;BME280;61787;42.022;23.078;2023-10-08T03:55:17;97215.41;;;12.05;68.09
20015;BME280;61787;42.022;23.078;2023-10-08T03:56:21;97212.94;;;12.00;68.44
20015;BME280;61787;42.022;23.078;2023-10-08T03:57:23;97216.97;;;12.06;68.19
20015;BME280;61787;42.022;23.078;2023-10-08T03:58:43;97216.84;;;12.03;68.47
20015;BME280;61787;42.022;23.078;2023-10-08T03:59:48;97225.50;;;12.08;67.24
20015;BME280;61787;42.022;23.078;2023-10-08T04:00:50;97222.13;;;12.11;67.32
20015;BME280;61787;42.022;23.078;2023-10-08T04:02:05;97225.28;;;12.13;67.47
20015;BME280;61787;42.022;23.078;2023-10-08T04:03:16;97215.22;;;12.22;67.33
20015;BME280;61787;42.022;23.078;2023-10-08T04:04:38;97211.88;;;12.25;67.83
20015;BME280;61787;42.022;23.078;2023-10-08T04:05:53;97217.16;;;12.34;66.78
20015;BME280;61787;42.022;23.078;2023-10-08T04:07:26;97214.78;;;12.32;66.73
20015;BME280;61787;42.022;23.078;2023-10-08T04:08:34;97216.47;;;12.37;66.89
20015;BME280;61787;42.022;23.078;2023-10-08T04:09:44;97223.53;;;12.42;66.47
20015;BME280;61787;42.022;23.078;2023-10-08T04:10:47;97220.41;;;12.39;66.59
20015;BME280;61787;42.022;23.078;2023-10-08T04:11:48;97213.56;;;12.42;67.20
20015;BME280;61787;42.022;23.078;2023-10-08T04:12:50;97220.50;;;12.43;67.34
20015;BME280;61787;42.022;23.078;2023-10-08T04:13:54;97216.03;;;12.47;67.13
20015;BME280;61787;42.022;23.078;2023-10-08T04:14:55;97221.56;;;12.51;66.81
20015;BME280;61787;42.022;23.078;2023-10-08T04:15:57;97217.72;;;12.52;66.90
20015;BME280;61787;42.022;23.078;2023-10-08T04:16:59;97208.66;;;12.56;67.16
20015;BME280;61787;42.022;23.078;2023-10-08T04:18:01;97209.78;;;12.55;66.76
20015;BME280;61787;42.022;23.078;2023-10-08T04:19:04;97215.94;;;12.56;66.40
20015;BME280;61787;42.022;23.078;2023-10-08T04:20:07;97221.97;;;12.53;66.25
20015;BME280;61787;42.022;23.078;2023-10-08T04:21:29;97227.59;;;12.35;66.56
20015;BME280;61787;42.022;23.078;2023-10-08T04:22:31;97220.16;;;12.32;66.56
20015;BME280;61787;42.022;23.078;2023-10-08T04:23:33;97227.13;;;12.33;66.16
20015;BME280;61787;42.022;23.078;2023-10-08T04:24:35;97224.88;;;12.35;66.68
20015;BME280;61787;42.022;23.078;2023-10-08T04:25:36;97222.63;;;12.37;66.13
20015;BME280;61787;42.022;23.078;2023-10-08T04:26:38;97227.38;;;12.41;66.55
20015;BME280;61787;42.022;23.078;2023-10-08T04:27:42;97227.00;;;12.42;66.49
20015;BME280;61787;42.022;23.078;2023-10-08T04:28:44;97226.22;;;12.42;66.10
20015;BME280;61787;42.022;23.078;2023-10-08T04:29:45;97230.28;;;12.35;65.47
20015;BME280;61787;42.022;23.078;2023-10-08T04:30:51;97219.91;;;11.80;66.24
20015;BME280;61787;42.022;23.078;2023-10-08T04:31:53;97231.03;;;11.70;67.99
20015;BME280;61787;42.022;23.078;2023-10-08T04:33:09;97227.75;;;11.65;67.83
20015;BME280;61787;42.022;23.078;2023-10-08T04:34:14;97223.75;;;11.50;68.08
20015;BME280;61787;42.022;23.078;2023-10-08T04:35:18;97224.50;;;11.38;69.04
20015;BME280;61787;42.022;23.078;2023-10-08T04:36:26;97231.63;;;11.34;69.09
20015;BME280;61787;42.022;23.078;2023-10-08T04:37:28;97224.22;;;11.31;69.46
20015;BME280;61787;42.022;23.078;2023-10-08T04:38:34;97225.03;;;11.32;69.62
20015;BME280;61787;42.022;23.078;2023-10-08T04:39:40;97222.66;;;11.30;69.62
20015;BME280;61787;42.022;23.078;2023-10-08T04:40:49;97222.59;;;11.18;70.52
20015;BME280;61787;42.022;23.078;2023-10-08T04:41:52;97233.53;;;11.13;70.25
20015;BME280;61787;42.022;23.078;2023-10-08T04:43:00;97236.66;;;11.15;69.83
20015;BME280;61787;42.022;23.078;2023-10-08T04:44:03;97224.91;;;11.28;70.30
20015;BME280;61787;42.022;23.078;2023-10-08T04:45:10;97231.44;;;11.39;70.57
20015;BME280;61787;42.022;23.078;2023-10-08T04:46:15;97229.22;;;11.41;69.55
20015;BME280;61787;42.022;23.078;2023-10-08T04:47:35;97231.63;;;11.34;69.85
20015;BME280;61787;42.022;23.078;2023-10-08T04:48:41;97231.94;;;11.12;70.31
20015;BME280;61787;42.022;23.078;2023-10-08T04:49:45;97228.25;;;10.96;70.66
20015;BME280;61787;42.022;23.078;2023-10-08T04:50:48;97227.03;;;10.85;71.74
20015;BME280;61787;42.022;23.078;2023-10-08T04:52:10;97224.06;;;10.78;72.74
20015;BME280;61787;42.022;23.078;2023-10-08T04:53:21;97224.84;;;10.87;71.48
20015;BME280;61787;42.022;23.078;2023-10-08T04:54:33;97219.47;;;10.87;72.95
20015;BME280;61787;42.022;23.078;2023-10-08T04:55:38;97217.59;;;10.87;72.74
20015;BME280;61787;42.022;23.078;2023-10-08T04:56:49;97213.75;;;10.97;71.72
20015;BME280;61787;42.022;23.078;2023-10-08T04:57:51;97218.06;;;11.10;72.06
20015;BME280;61787;42.022;23.078;2023-10-08T04:58:54;97214.56;;;11.18;72.70
20015;BME280;61787;42.022;23.078;2023-10-08T04:59:58;97211.78;;;11.27;71.91
20015;BME280;61787;42.022;23.078;2023-10-08T05:01:00;97212.19;;;11.37;71.53
20015;BME280;61787;42.022;23.078;2023-10-08T05:02:19;97209.69;;;11.53;70.72
20015;BME280;61787;42.022;23.078;2023-10-08T05:03:22;97217.00;;;11.65;70.80
20015;BME280;61787;42.022;23.078;2023-10-08T05:04:31;97211.41;;;11.58;71.00
20015;BME280;61787;42.022;23.078;2023-10-08T05:05:47;97214.69;;;11.42;70.52
20015;BME280;61787;42.022;23.078;2023-10-08T05:07:24;97216.06;;;11.48;71.02
20015;BME280;61787;42.022;23.078;2023-10-08T05:08:48;97212.97;;;11.59;70.67
20015;BME280;61787;42.022;23.078;2023-10-08T05:10:00;97205.91;;;11.54;71.03
20015;BME280;61787;42.022;23.078;2023-10-08T05:11:04;97210.22;;;11.46;70.36
20015;BME280;61787;42.022;23.078;2023-10-08T05:12:33;97210.59;;;11.57;70.80
20015;BME280;61787;42.022;23.078;2023-10-08T05:13:35;97209.41;;;11.67;71.22
20015;BME280;61787;42.022;23.078;2023-10-08T05:14:46;97220.88;;;11.76;71.17
20015;BME280;61787;42.022;23.078;2023-10-08T05:15:57;97211.63;;;11.85;69.73
20015;BME280;61787;42.022;23.078;2023-10-08T05:17:34;97208.41;;;11.92;69.33
20015;BME280;61787;42.022;23.078;2023-10-08T05:18:47;97205.94;;;11.87;69.60
20015;BME280;61787;42.022;23.078;2023-10-08T05:20:09;97215.56;;;11.88;69.44
20015;BME280;61787;42.022;23.078;2023-10-08T05:21:40;97210.66;;;11.90;69.98
20015;BME280;61787;42.022;23.078;2023-10-08T05:22:52;97211.09;;;11.92;70.26
20015;BME280;61787;42.022;23.078;2023-10-08T05:24:07;97213.63;;;11.76;69.86
20015;BME280;61787;42.022;23.078;2023-10-08T05:25:15;97206.03;;;11.78;70.19
20015;BME280;61787;42.022;23.078;2023-10-08T05:26:16;97205.63;;;11.88;70.74
20015;BME280;61787;42.022;23.078;2023-10-08T05:27:44;97207.56;;;12.00;69.27
20015;BME280;61787;42.022;23.078;2023-10-08T05:28:49;97213.50;;;12.06;69.01
20015;BME280;61787;42.022;23.078;2023-10-08T05:30:05;97210.59;;;12.11;69.48
20015;BME280;61787;42.022;23.078;2023-10-08T05:31:17;97200.41;;;12.16;68.71
20015;BME280;61787;42.022;23.078;2023-10-08T05:32:37;97197.75;;;12.28;67.39
20015;BME280;61787;42.022;23.078;2023-10-08T05:33:46;97197.06;;;12.31;67.92
20015;BME280;61787;42.022;23.078;2023-10-08T05:35:06;97192.63;;;12.35;67.58
20015;BME280;61787;42.022;23.078;2023-10-08T05:36:26;97198.44;;;12.37;67.76
20015;BME280;61787;42.022;23.078;2023-10-08T05:37:51;97196.63;;;12.42;67.38
20015;BME280;61787;42.022;23.078;2023-10-08T05:39:04;97202.16;;;12.45;67.39
20015;BME280;61787;42.022;23.078;2023-10-08T05:40:34;97210.78;;;12.51;67.51
20015;BME280;61787;42.022;23.078;2023-10-08T05:41:55;97208.53;;;12.53;66.96
20015;BME280;61787;42.022;23.078;2023-10-08T05:43:14;97208.09;;;12.51;67.40
20015;BME280;61787;42.022;23.078;2023-10-08T05:44:35;97208.09;;;12.51;67.87
20015;BME280;61787;42.022;23.078;2023-10-08T05:45:47;97200.47;;;12.53;67.58
20015;BME280;61787;42.022;23.078;2023-10-08T05:47:09;97203.72;;;12.58;67.56
20015;BME280;61787;42.022;23.078;2023-10-08T05:48:13;97200.47;;;12.65;67.59
20015;BME280;61787;42.022;23.078;2023-10-08T05:49:19;97199.78;;;12.68;67.41
20015;BME280;61787;42.022;23.078;2023-10-08T05:50:33;97206.19;;;12.75;67.04